sensor_id;sensor_type;location;lat;lon;timestamp;P1;durP1;ratioP1;P2;durP2;ratioP2
29958;SDS011;16815;51.100;6.516;2024-02-15T00:01:57;7.27;;;4.53;;
29958;SDS011;16815;51.100;6.516;2024-02-15T00:04:23;7.87;;;4.70;;
29958;SDS011;16815;51.100;6.516;2024-02-15T00:06:49;8.90;;;4.67;;
29958;SDS011;16815;51.100;6.516;2024-02-15T00:09:15;9.87;;;4.23;;
29958;SDS011;16815;51.100;6.516;2024-02-15T00:11:41;9.13;;;4.87;;
29958;SDS011;16815;51.100;6.516;2024-02-15T00:14:07;6.20;;;4.13;;
29958;SDS011;16815;51.100;6.516;2024-02-15T00:16:34;5.53;;;3.60;;
29958;SDS011;16815;51.100;6.516;2024-02-15T00:19:03;8.47;;;4.00;;
29958;SDS011;16815;51.100;6.516;2024-02-15T00:21:29;10.57;;;4.40;;
29958;SDS011;16815;51.100;6.516;2024-02-15T00:23:55;6.73;;;3.50;;
29958;SDS011;16815;51.100;6.516;2024-02-15T00:26:21;7.63;;;3.60;;
29958;SDS011;16815;51.100;6.516;2024-02-15T00:28:47;7.70;;;3.60;;
29958;SDS011;16815;51.100;6.516;2024-02-15T00:31:14;8.47;;;4.23;;
29958;SDS011;16815;51.100;6.516;2024-02-15T00:33:40;8.50;;;4.10;;
29958;SDS011;16815;51.100;6.516;2024-02-15T00:36:06;9.17;;;3.53;;
29958;SDS011;16815;51.100;6.516;2024-02-15T00:38:32;9.67;;;3.67;;
29958;SDS011;16815;51.100;6.516;2024-02-15T00:40:58;8.20;;;3.77;;
29958;SDS011;16815;51.100;6.516;2024-02-15T00:43:24;8.67;;;3.47;;
29958;SDS011;16815;51.100;6.516;2024-02-15T00:45:50;8.73;;;3.40;;
29958;SDS011;16815;51.100;6.516;2024-02-15T00:48:16;6.37;;;3.47;;
29958;SDS011;16815;51.100;6.516;2024-02-15T00:50:42;7.97;;;3.50;;
29958;SDS011;16815;51.100;6.516;2024-02-15T00:53:08;6.00;;;3.43;;
29958;SDS011;16815;51.100;6.516;2024-02-15T00:55:34;6.63;;;3.20;;
29958;SDS011;16815;51.100;6.516;2024-02-15T00:58:01;6.77;;;2.90;;
29958;SDS011;16815;51.100;6.516;2024-02-15T01:00:27;8.30;;;3.40;;
29958;SDS011;16815;51.100;6.516;2024-02-15T01:02:53;6.77;;;3.07;;
29958;SDS011;16815;51.100;6.516;2024-02-15T01:05:19;7.57;;;3.67;;
29958;SDS011;16815;51.100;6.516;2024-02-15T01:07:46;9.37;;;3.60;;
29958;SDS011;16815;51.100;6.516;2024-02-15T01:10:14;7.13;;;3.50;;
29958;SDS011;16815;51.100;6.516;2024-02-15T01:12:40;5.73;;;3.13;;
29958;SDS011;16815;51.100;6.516;2024-02-15T01:15:06;8.37;;;3.33;;
29958;SDS011;16815;51.100;6.516;2024-02-15T01:17:32;7.43;;;2.97;;
29958;SDS011;16815;51.100;6.516;2024-02-15T01:19:58;7.37;;;3.20;;
29958;SDS011;16815;51.100;6.516;2024-02-15T01:22:24;9.33;;;3.47;;
29958;SDS011;16815;51.100;6.516;2024-02-15T01:24:52;5.83;;;3.43;;
29958;SDS011;16815;51.100;6.516;2024-02-15T01:27:18;7.80;;;3.40;;
29958;SDS011;16815;51.100;6.516;2024-02-15T01:29:44;8.03;;;3.03;;
29958;SDS011;16815;51.100;6.516;2024-02-15T01:32:10;10.87;;;3.03;;
29958;SDS011;16815;51.100;6.516;2024-02-15T01:34:36;11.07;;;3.00;;
29958;SDS011;16815;51.100;6.516;2024-02-15T01:37:02;13.40;;;3.37;;
29958;SDS011;16815;51.100;6.516;2024-02-15T01:39:28;6.93;;;3.03;;
29958;SDS011;16815;51.100;6.516;2024-02-15T01:41:54;10.90;;;3.50;;
29958;SDS011;16815;51.100;6.516;2024-02-15T01:44:21;6.20;;;3.30;;
29958;SDS011;16815;51.100;6.516;2024-02-15T01:46:49;8.03;;;3.30;;
29958;SDS011;16815;51.100;6.516;2024-02-15T01:49:18;6.73;;;3.23;;
29958;SDS011;16815;51.100;6.516;2024-02-15T01:51:44;11.83;;;3.47;;
29958;SDS011;16815;51.100;6.516;2024-02-15T01:54:11;9.47;;;3.20;;
29958;SDS011;16815;51.100;6.516;2024-02-15T01:56:38;6.70;;;3.30;;
29958;SDS011;16815;51.100;6.516;2024-02-15T01:59:04;8.63;;;3.20;;
29958;SDS011;16815;51.100;6.516;2024-02-15T02:01:31;8.37;;;3.13;;
29958;SDS011;16815;51.100;6.516;2024-02-15T02:03:58;7.97;;;3.00;;
29958;SDS011;16815;51.100;6.516;2024-02-15T02:06:24;7.87;;;3.27;;
29958;SDS011;16815;51.100;6.516;2024-02-15T02:08:50;9.20;;;3.43;;
29958;SDS011;16815;51.100;6.516;2024-02-15T02:11:16;9.83;;;3.27;;
29958;SDS011;16815;51.100;6.516;2024-02-15T02:13:42;5.07;;;2.67;;
29958;SDS011;16815;51.100;6.516;2024-02-15T02:16:30;5.37;;;3.27;;
29958;SDS011;16815;51.100;6.516;2024-02-15T02:18:57;5.90;;;2.97;;
29958;SDS011;16815;51.100;6.516;2024-02-15T02:21:25;6.33;;;2.97;;
29958;SDS011;16815;51.100;6.516;2024-02-15T02:24:02;8.33;;;3.60;;
29958;SDS011;16815;51.100;6.516;2024-02-15T02:26:32;8.07;;;3.07;;
29958;SDS011;16815;51.100;6.516;2024-02-15T02:28:59;8.37;;;3.10;;
29958;SDS011;16815;51.100;6.516;2024-02-15T02:31:31;6.67;;;3.07;;
29958;SDS011;16815;51.100;6.516;2024-02-15T02:33:58;5.43;;;2.80;;
29958;SDS011;16815;51.100;6.516;2024-02-15T02:36:23;6.43;;;2.70;;
29958;SDS011;16815;51.100;6.516;2024-02-15T02:38:51;7.83;;;3.10;;
29958;SDS011;16815;51.100;6.516;2024-02-15T02:41:17;9.00;;;3.30;;
29958;SDS011;16815;51.100;6.516;2024-02-15T02:43:48;7.13;;;2.90;;
29958;SDS011;16815;51.100;6.516;2024-02-15T02:46:14;7.13;;;2.83;;
29958;SDS011;16815;51.100;6.516;2024-02-15T02:48:40;6.20;;;3.40;;
29958;SDS011;16815;51.100;6.516;2024-02-15T02:51:07;8.07;;;3.00;;
29958;SDS011;16815;51.100;6.516;2024-02-15T02:53:33;6.63;;;3.20;;
29958;SDS011;16815;51.100;6.516;2024-02-15T02:55:59;7.00;;;3.10;;
29958;SDS011;16815;51.100;6.516;2024-02-15T02:58:25;4.67;;;2.60;;
29958;SDS011;16815;51.100;6.516;2024-02-15T03:00:51;7.90;;;2.70;;
29958;SDS011;16815;51.100;6.516;2024-02-15T03:03:17;5.80;;;2.63;;
29958;SDS011;16815;51.100;6.516;2024-02-15T03:05:48;6.03;;;2.67;;
29958;SDS011;16815;51.100;6.516;2024-02-15T03:08:14;8.30;;;3.00;;
29958;SDS011;16815;51.100;6.516;2024-02-15T03:10:42;7.53;;;2.80;;
29958;SDS011;16815;51.100;6.516;2024-02-15T03:13:08;6.87;;;2.50;;
29958;SDS011;16815;51.100;6.516;2024-02-15T03:15:34;7.33;;;2.70;;
29958;SDS011;16815;51.100;6.516;2024-02-15T03:18:00;8.37;;;2.60;;
29958;SDS011;16815;51.100;6.516;2024-02-15T03:20:31;7.33;;;2.93;;
29958;SDS011;16815;51.100;6.516;2024-02-15T03:22:58;6.90;;;2.77;;
29958;SDS011;16815;51.100;6.516;2024-02-15T03:25:25;7.87;;;3.10;;
29958;SDS011;16815;51.100;6.516;2024-02-15T03:27:52;10.27;;;2.87;;
29958;SDS011;16815;51.100;6.516;2024-02-15T03:30:18;8.63;;;3.10;;
29958;SDS011;16815;51.100;6.516;2024-02-15T03:32:45;10.23;;;2.87;;
29958;SDS011;16815;51.100;6.516;2024-02-15T03:35:13;9.00;;;2.90;;
29958;SDS011;16815;51.100;6.516;2024-02-15T03:37:39;8.17;;;2.53;;
29958;SDS011;16815;51.100;6.516;2024-02-15T03:40:06;6.50;;;2.77;;
29958;SDS011;16815;51.100;6.516;2024-02-15T03:42:33;9.50;;;2.80;;
29958;SDS011;16815;51.100;6.516;2024-02-15T03:45:01;10.27;;;2.73;;
29958;SDS011;16815;51.100;6.516;2024-02-15T03:47:27;9.17;;;2.70;;
29958;SDS011;16815;51.100;6.516;2024-02-15T03:49:54;7.80;;;2.57;;
29958;SDS011;16815;51.100;6.516;2024-02-15T03:52:20;8.73;;;3.00;;
29958;SDS011;16815;51.100;6.516;2024-02-15T03:54:47;7.70;;;3.33;;
29958;SDS011;16815;51.100;6.516;2024-02-15T03:57:13;6.80;;;2.47;;
29958;SDS011;16815;51.100;6.516;2024-02-15T03:59:42;8.83;;;2.83;;
29958;SDS011;16815;51.100;6.516;2024-02-15T04:02:08;6.80;;;2.73;;
29958;SDS011;16815;51.100;6.516;2024-02-15T04:04:39;9.80;;;2.77;;
29958;SDS011;16815;51.100;6.516;2024-02-15T04:07:11;9.97;;;3.27;;
29958;SDS011;16815;51.100;6.516;2024-02-15T04:09:37;9.00;;;2.83;;
29958;SDS011;16815;51.100;6.516;2024-02-15T04:12:03;8.07;;;2.93;;
29958;SDS011;16815;51.100;6.516;2024-02-15T04:14:29;6.90;;;2.80;;
29958;SDS011;16815;51.100;6.516;2024-02-15T04:16:58;8.63;;;2.80;;
29958;SDS011;16815;51.100;6.516;2024-02-15T04:19:25;7.10;;;2.50;;
29958;SDS011;16815;51.100;6.516;2024-02-15T04:21:51;8.50;;;2.87;;
29958;SDS011;16815;51.100;6.516;2024-02-15T04:24:17;7.70;;;3.27;;
29958;SDS011;16815;51.100;6.516;2024-02-15T04:26:43;11.27;;;3.33;;
29958;SDS011;16815;51.100;6.516;2024-02-15T04:29:12;5.93;;;2.40;;
29958;SDS011;16815;51.100;6.516;2024-02-15T04:31:39;6.07;;;2.63;;
29958;SDS011;16815;51.100;6.516;2024-02-15T04:34:05;10.30;;;3.53;;
29958;SDS011;16815;51.100;6.516;2024-02-15T04:36:31;8.60;;;2.97;;
29958;SDS011;16815;51.100;6.516;2024-02-15T04:38:59;8.10;;;2.57;;
29958;SDS011;16815;51.100;6.516;2024-02-15T04:41:29;9.50;;;2.73;;
29958;SDS011;16815;51.100;6.516;2024-02-15T04:43:55;13.17;;;3.23;;
29958;SDS011;16815;51.100;6.516;2024-02-15T04:46:22;9.37;;;2.70;;
29958;SDS011;16815;51.100;6.516;2024-02-15T04:48:48;5.27;;;2.43;;
29958;SDS011;16815;51.100;6.516;2024-02-15T04:51:14;6.00;;;2.20;;
29958;SDS011;16815;51.100;6.516;2024-02-15T04:53:41;6.27;;;2.80;;
29958;SDS011;16815;51.100;6.516;2024-02-15T04:56:07;7.03;;;2.63;;
29958;SDS011;16815;51.100;6.516;2024-02-15T04:58:39;5.53;;;2.13;;
29958;SDS011;16815;51.100;6.516;2024-02-15T05:01:12;4.33;;;2.03;;
29958;SDS011;16815;51.100;6.516;2024-02-15T05:03:38;4.23;;;1.90;;
29958;SDS011;16815;51.100;6.516;2024-02-15T05:06:04;5.90;;;2.10;;
29958;SDS011;16815;51.100;6.516;2024-02-15T05:08:30;4.00;;;2.07;;
29958;SDS011;16815;51.100;6.516;2024-02-15T05:10:57;6.13;;;2.20;;
29958;SDS011;16815;51.100;6.516;2024-02-15T05:13:26;5.50;;;2.00;;
29958;SDS011;16815;51.100;6.516;2024-02-15T05:15:52;4.23;;;1.97;;
29958;SDS011;16815;51.100;6.516;2024-02-15T05:18:18;5.77;;;2.40;;
29958;SDS011;16815;51.100;6.516;2024-02-15T05:20:44;5.57;;;2.20;;
29958;SDS011;16815;51.100;6.516;2024-02-15T05:23:10;5.00;;;2.40;;
29958;SDS011;16815;51.100;6.516;2024-02-15T05:25:37;6.37;;;2.33;;
29958;SDS011;16815;51.100;6.516;2024-02-15T05:28:03;6.50;;;2.10;;
29958;SDS011;16815;51.100;6.516;2024-02-15T05:30:31;6.07;;;2.10;;
29958;SDS011;16815;51.100;6.516;2024-02-15T05:32:57;6.63;;;2.30;;
29958;SDS011;16815;51.100;6.516;2024-02-15T05:35:23;7.20;;;2.20;;
29958;SDS011;16815;51.100;6.516;2024-02-15T05:37:50;3.93;;;2.13;;
29958;SDS011;16815;51.100;6.516;2024-02-15T05:40:18;5.70;;;2.07;;
29958;SDS011;16815;51.100;6.516;2024-02-15T05:42:45;6.13;;;2.10;;
29958;SDS011;16815;51.100;6.516;2024-02-15T05:47:52;6.50;;;2.47;;
29958;SDS011;16815;51.100;6.516;2024-02-15T05:50:18;7.57;;;2.20;;
29958;SDS011;16815;51.100;6.516;2024-02-15T05:52:48;4.33;;;1.70;;
29958;SDS011;16815;51.100;6.516;2024-02-15T05:55:14;6.63;;;2.10;;
29958;SDS011;16815;51.100;6.516;2024-02-15T05:57:41;7.93;;;2.27;;
29958;SDS011;16815;51.100;6.516;2024-02-15T06:00:08;3.63;;;2.00;;
29958;SDS011;16815;51.100;6.516;2024-02-15T06:02:34;8.03;;;2.63;;
29958;SDS011;16815;51.100;6.516;2024-02-15T06:05:00;4.87;;;2.17;;
29958;SDS011;16815;51.100;6.516;2024-02-15T06:07:29;5.33;;;2.20;;
29958;SDS011;16815;51.100;6.516;2024-02-15T06:09:58;4.70;;;2.17;;
29958;SDS011;16815;51.100;6.516;2024-02-15T06:12:30;6.40;;;2.23;;
29958;SDS011;16815;51.100;6.516;2024-02-15T06:14:57;7.00;;;2.27;;
29958;SDS011;16815;51.100;6.516;2024-02-15T06:17:23;5.70;;;2.10;;
29958;SDS011;16815;51.100;6.516;2024-02-15T06:19:49;6.87;;;2.40;;
29958;SDS011;16815;51.100;6.516;2024-02-15T06:22:15;3.43;;;1.97;;
29958;SDS011;16815;51.100;6.516;2024-02-15T06:24:41;3.70;;;2.17;;
29958;SDS011;16815;51.100;6.516;2024-02-15T06:27:07;4.30;;;2.10;;
29958;SDS011;16815;51.100;6.516;2024-02-15T06:29:33;4.97;;;2.40;;
29958;SDS011;16815;51.100;6.516;2024-02-15T06:32:17;4.20;;;2.10;;
29958;SDS011;16815;51.100;6.516;2024-02-15T06:35:02;5.03;;;2.30;;
29958;SDS011;16815;51.100;6.516;2024-02-15T06:37:47;5.37;;;2.20;;
29958;SDS011;16815;51.100;6.516;2024-02-15T06:40:31;7.73;;;2.27;;
29958;SDS011;16815;51.100;6.516;2024-02-15T06:42:58;3.07;;;2.27;;
29958;SDS011;16815;51.100;6.516;2024-02-15T06:45:24;7.77;;;2.90;;
29958;SDS011;16815;51.100;6.516;2024-02-15T06:47:51;6.80;;;2.60;;
29958;SDS011;16815;51.100;6.516;2024-02-15T06:50:17;5.50;;;2.27;;
29958;SDS011;16815;51.100;6.516;2024-02-15T06:52:43;4.80;;;2.30;;
29958;SDS011;16815;51.100;6.516;2024-02-15T06:55:10;8.07;;;2.57;;
29958;SDS011;16815;51.100;6.516;2024-02-15T06:57:36;5.17;;;2.00;;
29958;SDS011;16815;51.100;6.516;2024-02-15T07:00:03;7.77;;;2.57;;
29958;SDS011;16815;51.100;6.516;2024-02-15T07:02:34;7.60;;;2.80;;
29958;SDS011;16815;51.100;6.516;2024-02-15T07:05:00;7.23;;;2.17;;
29958;SDS011;16815;51.100;6.516;2024-02-15T07:07:28;10.93;;;2.30;;
29958;SDS011;16815;51.100;6.516;2024-02-15T07:09:54;7.47;;;2.83;;
29958;SDS011;16815;51.100;6.516;2024-02-15T07:12:20;7.77;;;2.70;;
29958;SDS011;16815;51.100;6.516;2024-02-15T07:14:46;6.20;;;2.87;;
29958;SDS011;16815;51.100;6.516;2024-02-15T07:17:13;6.40;;;2.43;;
29958;SDS011;16815;51.100;6.516;2024-02-15T07:19:45;6.80;;;2.57;;
29958;SDS011;16815;51.100;6.516;2024-02-15T07:22:14;7.97;;;3.17;;
29958;SDS011;16815;51.100;6.516;2024-02-15T07:24:40;5.00;;;2.80;;
29958;SDS011;16815;51.100;6.516;2024-02-15T07:27:06;5.30;;;2.37;;
29958;SDS011;16815;51.100;6.516;2024-02-15T07:29:32;7.93;;;2.10;;
29958;SDS011;16815;51.100;6.516;2024-02-15T07:32:00;7.37;;;3.00;;
29958;SDS011;16815;51.100;6.516;2024-02-15T07:34:29;10.00;;;2.57;;
29958;SDS011;16815;51.100;6.516;2024-02-15T07:36:56;5.23;;;3.00;;
29958;SDS011;16815;51.100;6.516;2024-02-15T07:39:25;6.27;;;2.70;;
29958;SDS011;16815;51.100;6.516;2024-02-15T07:41:55;4.03;;;2.50;;
29958;SDS011;16815;51.100;6.516;2024-02-15T07:44:23;5.03;;;2.50;;
29958;SDS011;16815;51.100;6.516;2024-02-15T07:46:50;6.37;;;2.67;;
29958;SDS011;16815;51.100;6.516;2024-02-15T07:49:16;5.20;;;2.23;;
29958;SDS011;16815;51.100;6.516;2024-02-15T07:51:45;4.30;;;2.13;;
29958;SDS011;16815;51.100;6.516;2024-02-15T07:54:17;4.70;;;2.33;;
29958;SDS011;16815;51.100;6.516;2024-02-15T07:56:46;9.10;;;2.47;;
29958;SDS011;16815;51.100;6.516;2024-02-15T07:59:12;8.27;;;2.60;;
29958;SDS011;16815;51.100;6.516;2024-02-15T08:01:40;6.53;;;2.53;;
29958;SDS011;16815;51.100;6.516;2024-02-15T08:04:06;6.13;;;2.57;;
29958;SDS011;16815;51.100;6.516;2024-02-15T08:06:33;6.73;;;2.40;;
29958;SDS011;16815;51.100;6.516;2024-02-15T08:09:01;4.67;;;2.40;;
29958;SDS011;16815;51.100;6.516;2024-02-15T08:11:31;8.37;;;2.80;;
29958;SDS011;16815;51.100;6.516;2024-02-15T08:13:57;5.13;;;2.60;;
29958;SDS011;16815;51.100;6.516;2024-02-15T08:16:26;4.70;;;2.10;;
29958;SDS011;16815;51.100;6.516;2024-02-15T08:18:52;6.73;;;2.83;;
29958;SDS011;16815;51.100;6.516;2024-02-15T08:21:28;5.83;;;2.27;;
29958;SDS011;16815;51.100;6.516;2024-02-15T08:23:54;6.43;;;2.90;;
29958;SDS011;16815;51.100;6.516;2024-02-15T08:26:21;7.57;;;2.27;;
29958;SDS011;16815;51.100;6.516;2024-02-15T08:28:47;5.27;;;2.33;;
29958;SDS011;16815;51.100;6.516;2024-02-15T08:31:13;5.20;;;2.30;;
29958;SDS011;16815;51.100;6.516;2024-02-15T08:33:41;7.67;;;2.33;;
29958;SDS011;16815;51.100;6.516;2024-02-15T08:36:11;8.17;;;2.10;;
29958;SDS011;16815;51.100;6.516;2024-02-15T08:38:39;6.23;;;2.47;;
29958;SDS011;16815;51.100;6.516;2024-02-15T08:41:06;4.57;;;1.80;;
29958;SDS011;16815;51.100;6.516;2024-02-15T08:43:33;5.23;;;2.03;;
29958;SDS011;16815;51.100;6.516;2024-02-15T08:45:59;3.77;;;2.00;;
29958;SDS011;16815;51.100;6.516;2024-02-15T08:48:26;6.53;;;2.20;;
29958;SDS011;16815;51.100;6.516;2024-02-15T08:50:52;4.97;;;2.07;;
29958;SDS011;16815;51.100;6.516;2024-02-15T08:53:18;2.83;;;1.90;;
29958;SDS011;16815;51.100;6.516;2024-02-15T08:55:47;3.40;;;1.97;;
29958;SDS011;16815;51.100;6.516;2024-02-15T08:58:13;4.83;;;2.20;;
29958;SDS011;16815;51.100;6.516;2024-02-15T09:00:39;4.53;;;1.93;;
29958;SDS011;16815;51.100;6.516;2024-02-15T09:03:09;5.97;;;2.17;;
29958;SDS011;16815;51.100;6.516;2024-02-15T09:05:36;4.67;;;2.10;;
29958;SDS011;16815;51.100;6.516;2024-02-15T09:08:02;6.63;;;2.23;;
29958;SDS011;16815;51.100;6.516;2024-02-15T09:10:29;7.90;;;2.00;;
29958;SDS011;16815;51.100;6.516;2024-02-15T09:12:55;4.80;;;2.13;;
29958;SDS011;16815;51.100;6.516;2024-02-15T09:15:22;5.87;;;2.33;;
29958;SDS011;16815;51.100;6.516;2024-02-15T09:17:48;4.13;;;1.83;;
29958;SDS011;16815;51.100;6.516;2024-02-15T09:20:15;4.60;;;2.00;;
29958;SDS011;16815;51.100;6.516;2024-02-15T09:22:50;6.27;;;2.20;;
29958;SDS011;16815;51.100;6.516;2024-02-15T09:25:16;6.30;;;2.33;;
29958;SDS011;16815;51.100;6.516;2024-02-15T09:27:42;5.37;;;2.43;;
29958;SDS011;16815;51.100;6.516;2024-02-15T09:30:09;5.30;;;2.10;;
29958;SDS011;16815;51.100;6.516;2024-02-15T09:32:37;4.87;;;1.97;;
29958;SDS011;16815;51.100;6.516;2024-02-15T09:35:04;5.83;;;1.83;;
29958;SDS011;16815;51.100;6.516;2024-02-15T09:37:34;6.50;;;2.30;;
29958;SDS011;16815;51.100;6.516;2024-02-15T09:40:00;6.10;;;2.20;;
29958;SDS011;16815;51.100;6.516;2024-02-15T09:42:31;6.80;;;2.40;;
29958;SDS011;16815;51.100;6.516;2024-02-15T09:44:59;4.17;;;2.03;;
29958;SDS011;16815;51.100;6.516;2024-02-15T09:47:27;4.17;;;1.93;;
29958;SDS011;16815;51.100;6.516;2024-02-15T09:49:55;7.67;;;1.93;;
29958;SDS011;16815;51.100;6.516;2024-02-15T09:52:21;4.23;;;2.13;;
29958;SDS011;16815;51.100;6.516;2024-02-15T09:54:49;3.00;;;1.67;;
29958;SDS011;16815;51.100;6.516;2024-02-15T09:57:15;3.27;;;2.00;;
29958;SDS011;16815;51.100;6.516;2024-02-15T09:59:43;6.27;;;1.70;;
29958;SDS011;16815;51.100;6.516;2024-02-15T10:02:09;5.90;;;1.83;;
29958;SDS011;16815;51.100;6.516;2024-02-15T10:04:39;4.90;;;1.80;;
29958;SDS011;16815;51.100;6.516;2024-02-15T10:07:05;5.97;;;1.80;;
29958;SDS011;16815;51.100;6.516;2024-02-15T10:09:33;3.70;;;2.00;;
29958;SDS011;16815;51.100;6.516;2024-02-15T10:12:01;8.10;;;2.17;;
29958;SDS011;16815;51.100;6.516;2024-02-15T10:14:28;6.60;;;2.23;;
29958;SDS011;16815;51.100;6.516;2024-02-15T10:16:54;6.27;;;2.17;;
29958;SDS011;16815;51.100;6.516;2024-02-15T10:19:21;7.10;;;2.27;;
29958;SDS011;16815;51.100;6.516;2024-02-15T10:21:52;7.47;;;1.73;;
29958;SDS011;16815;51.100;6.516;2024-02-15T10:24:24;6.10;;;1.90;;
29958;SDS011;16815;51.100;6.516;2024-02-15T10:26:50;3.57;;;1.60;;
29958;SDS011;16815;51.100;6.516;2024-02-15T10:29:17;3.57;;;1.67;;
29958;SDS011;16815;51.100;6.516;2024-02-15T10:31:53;4.37;;;1.73;;
29958;SDS011;16815;51.100;6.516;2024-02-15T10:34:19;6.47;;;1.80;;
29958;SDS011;16815;51.100;6.516;2024-02-15T10:36:45;4.70;;;1.73;;
29958;SDS011;16815;51.100;6.516;2024-02-15T10:39:15;2.43;;;1.60;;
29958;SDS011;16815;51.100;6.516;2024-02-15T10:41:53;5.17;;;1.77;;
29958;SDS011;16815;51.100;6.516;2024-02-15T10:44:23;5.10;;;1.60;;
29958;SDS011;16815;51.100;6.516;2024-02-15T10:46:53;3.27;;;1.53;;
29958;SDS011;16815;51.100;6.516;2024-02-15T10:49:20;3.40;;;1.70;;
29958;SDS011;16815;51.100;6.516;2024-02-15T10:51:48;2.43;;;1.20;;
29958;SDS011;16815;51.100;6.516;2024-02-15T10:54:22;3.37;;;1.70;;
29958;SDS011;16815;51.100;6.516;2024-02-15T10:56:50;4.70;;;1.80;;
29958;SDS011;16815;51.100;6.516;2024-02-15T10:59:21;6.97;;;2.10;;
29958;SDS011;16815;51.100;6.516;2024-02-15T11:01:52;4.73;;;1.57;;
29958;SDS011;16815;51.100;6.516;2024-02-15T11:04:21;3.27;;;1.43;;
29958;SDS011;16815;51.100;6.516;2024-02-15T11:06:50;3.20;;;1.70;;
29958;SDS011;16815;51.100;6.516;2024-02-15T11:09:16;5.57;;;1.90;;
29958;SDS011;16815;51.100;6.516;2024-02-15T11:11:42;2.43;;;1.33;;
29958;SDS011;16815;51.100;6.516;2024-02-15T11:16:54;4.17;;;1.80;;
29958;SDS011;16815;51.100;6.516;2024-02-15T11:22:10;3.57;;;1.57;;
29958;SDS011;16815;51.100;6.516;2024-02-15T11:24:46;3.10;;;1.60;;
29958;SDS011;16815;51.100;6.516;2024-02-15T11:27:13;5.13;;;1.33;;
29958;SDS011;16815;51.100;6.516;2024-02-15T11:29:49;3.63;;;1.60;;
29958;SDS011;16815;51.100;6.516;2024-02-15T11:32:34;5.23;;;2.03;;
29958;SDS011;16815;51.100;6.516;2024-02-15T11:35:04;1.67;;;1.23;;
29958;SDS011;16815;51.100;6.516;2024-02-15T11:40:17;3.23;;;1.50;;
29958;SDS011;16815;51.100;6.516;2024-02-15T11:42:44;3.37;;;1.37;;
29958;SDS011;16815;51.100;6.516;2024-02-15T11:45:11;3.50;;;1.40;;
29958;SDS011;16815;51.100;6.516;2024-02-15T11:47:38;2.60;;;1.30;;
29958;SDS011;16815;51.100;6.516;2024-02-15T11:50:09;3.23;;;1.20;;
29958;SDS011;16815;51.100;6.516;2024-02-15T11:52:40;6.03;;;1.60;;
29958;SDS011;16815;51.100;6.516;2024-02-15T11:55:07;4.67;;;1.40;;
29958;SDS011;16815;51.100;6.516;2024-02-15T11:57:38;4.23;;;1.50;;
29958;SDS011;16815;51.100;6.516;2024-02-15T12:00:22;3.93;;;1.37;;
29958;SDS011;16815;51.100;6.516;2024-02-15T12:03:07;2.27;;;1.13;;
29958;SDS011;16815;51.100;6.516;2024-02-15T12:05:51;5.80;;;1.60;;
29958;SDS011;16815;51.100;6.516;2024-02-15T12:08:37;5.23;;;1.20;;
29958;SDS011;16815;51.100;6.516;2024-02-15T12:11:22;2.10;;;1.30;;
29958;SDS011;16815;51.100;6.516;2024-02-15T12:14:06;3.67;;;1.37;;
29958;SDS011;16815;51.100;6.516;2024-02-15T12:17:04;4.03;;;1.30;;
29958;SDS011;16815;51.100;6.516;2024-02-15T12:19:49;2.63;;;1.30;;
29958;SDS011;16815;51.100;6.516;2024-02-15T12:22:27;4.93;;;1.40;;
29958;SDS011;16815;51.100;6.516;2024-02-15T12:27:20;3.53;;;1.60;;
29958;SDS011;16815;51.100;6.516;2024-02-15T12:29:52;4.07;;;1.40;;
29958;SDS011;16815;51.100;6.516;2024-02-15T12:32:24;2.47;;;1.40;;
29958;SDS011;16815;51.100;6.516;2024-02-15T12:34:51;6.37;;;1.20;;
29958;SDS011;16815;51.100;6.516;2024-02-15T12:37:17;3.63;;;1.63;;
29958;SDS011;16815;51.100;6.516;2024-02-15T12:39:45;1.97;;;1.13;;
29958;SDS011;16815;51.100;6.516;2024-02-15T12:42:12;3.70;;;1.20;;
29958;SDS011;16815;51.100;6.516;2024-02-15T12:44:42;4.00;;;1.07;;
29958;SDS011;16815;51.100;6.516;2024-02-15T12:47:16;5.17;;;1.13;;
29958;SDS011;16815;51.100;6.516;2024-02-15T12:49:42;2.53;;;1.20;;
29958;SDS011;16815;51.100;6.516;2024-02-15T12:55:05;2.13;;;1.13;;
29958;SDS011;16815;51.100;6.516;2024-02-15T12:57:33;3.33;;;1.30;;
29958;SDS011;16815;51.100;6.516;2024-02-15T13:00:00;5.90;;;1.47;;
29958;SDS011;16815;51.100;6.516;2024-02-15T13:02:35;4.43;;;1.40;;
29958;SDS011;16815;51.100;6.516;2024-02-15T13:05:02;2.57;;;1.07;;
29958;SDS011;16815;51.100;6.516;2024-02-15T13:07:28;2.30;;;1.20;;
29958;SDS011;16815;51.100;6.516;2024-02-15T13:09:54;4.20;;;1.80;;
29958;SDS011;16815;51.100;6.516;2024-02-15T13:12:20;1.63;;;1.13;;
29958;SDS011;16815;51.100;6.516;2024-02-15T13:14:46;1.93;;;1.20;;
29958;SDS011;16815;51.100;6.516;2024-02-15T13:17:12;3.10;;;1.33;;
29958;SDS011;16815;51.100;6.516;2024-02-15T13:19:38;4.27;;;1.40;;
29958;SDS011;16815;51.100;6.516;2024-02-15T13:22:05;2.57;;;1.00;;
29958;SDS011;16815;51.100;6.516;2024-02-15T13:24:33;2.77;;;0.87;;
29958;SDS011;16815;51.100;6.516;2024-02-15T13:26:59;4.23;;;1.17;;
29958;SDS011;16815;51.100;6.516;2024-02-15T13:29:25;2.27;;;1.30;;
29958;SDS011;16815;51.100;6.516;2024-02-15T13:31:51;2.10;;;1.07;;
29958;SDS011;16815;51.100;6.516;2024-02-15T13:34:17;1.43;;;0.90;;
29958;SDS011;16815;51.100;6.516;2024-02-15T13:36:44;5.37;;;1.03;;
29958;SDS011;16815;51.100;6.516;2024-02-15T13:39:11;3.50;;;1.13;;
29958;SDS011;16815;51.100;6.516;2024-02-15T13:41:37;2.53;;;1.13;;
29958;SDS011;16815;51.100;6.516;2024-02-15T13:44:02;4.10;;;1.30;;
29958;SDS011;16815;51.100;6.516;2024-02-15T13:46:29;1.87;;;1.07;;
29958;SDS011;16815;51.100;6.516;2024-02-15T13:48:55;2.63;;;1.20;;
29958;SDS011;16815;51.100;6.516;2024-02-15T13:51:23;4.83;;;1.03;;
29958;SDS011;16815;51.100;6.516;2024-02-15T13:53:49;2.30;;;1.17;;
29958;SDS011;16815;51.100;6.516;2024-02-15T13:56:15;3.67;;;1.37;;
29958;SDS011;16815;51.100;6.516;2024-02-15T13:58:41;2.23;;;1.30;;
29958;SDS011;16815;51.100;6.516;2024-02-15T14:01:07;1.57;;;0.87;;
29958;SDS011;16815;51.100;6.516;2024-02-15T14:03:33;1.77;;;1.10;;
29958;SDS011;16815;51.100;6.516;2024-02-15T14:05:59;3.13;;;1.13;;
29958;SDS011;16815;51.100;6.516;2024-02-15T14:08:25;2.10;;;1.27;;
29958;SDS011;16815;51.100;6.516;2024-02-15T14:10:51;2.17;;;1.30;;
29958;SDS011;16815;51.100;6.516;2024-02-15T14:13:17;4.60;;;1.50;;
29958;SDS011;16815;51.100;6.516;2024-02-15T14:15:46;2.27;;;1.10;;
29958;SDS011;16815;51.100;6.516;2024-02-15T14:18:12;5.30;;;0.93;;
29958;SDS011;16815;51.100;6.516;2024-02-15T14:20:39;1.87;;;0.90;;
29958;SDS011;16815;51.100;6.516;2024-02-15T14:23:07;2.00;;;1.10;;
29958;SDS011;16815;51.100;6.516;2024-02-15T14:25:38;2.07;;;0.80;;
29958;SDS011;16815;51.100;6.516;2024-02-15T14:28:04;2.00;;;1.17;;
29958;SDS011;16815;51.100;6.516;2024-02-15T14:30:33;2.10;;;1.10;;
29958;SDS011;16815;51.100;6.516;2024-02-15T14:33:18;4.83;;;1.23;;
29958;SDS011;16815;51.100;6.516;2024-02-15T14:35:44;1.70;;;1.07;;
29958;SDS011;16815;51.100;6.516;2024-02-15T14:38:11;3.80;;;1.20;;
29958;SDS011;16815;51.100;6.516;2024-02-15T14:40:39;2.80;;;0.87;;
29958;SDS011;16815;51.100;6.516;2024-02-15T14:43:06;2.70;;;1.10;;
29958;SDS011;16815;51.100;6.516;2024-02-15T14:45:40;2.00;;;1.13;;
29958;SDS011;16815;51.100;6.516;2024-02-15T14:48:09;3.30;;;1.20;;
29958;SDS011;16815;51.100;6.516;2024-02-15T14:50:41;3.33;;;1.40;;
29958;SDS011;16815;51.100;6.516;2024-02-15T14:53:09;2.70;;;1.20;;
29958;SDS011;16815;51.100;6.516;2024-02-15T14:55:35;2.23;;;1.10;;
29958;SDS011;16815;51.100;6.516;2024-02-15T14:58:03;3.37;;;1.20;;
29958;SDS011;16815;51.100;6.516;2024-02-15T15:00:30;2.90;;;1.20;;
29958;SDS011;16815;51.100;6.516;2024-02-15T15:02:56;2.40;;;1.10;;
29958;SDS011;16815;51.100;6.516;2024-02-15T15:05:23;1.60;;;1.20;;
29958;SDS011;16815;51.100;6.516;2024-02-15T15:08:07;3.07;;;1.30;;
29958;SDS011;16815;51.100;6.516;2024-02-15T15:10:52;1.63;;;1.10;;